createdAt,value
2018-05-21T00:00:34.432Z,20.90
2018-05-21T00:03:05.030Z,20.93
2018-05-21T00:05:32.934Z,21.97
2018-05-21T00:08:04.999Z,22.30
2018-05-21T00:10:35.139Z,23.23
2018-05-21T00:13:04.589Z,24.00
2018-05-21T00:15:32.384Z,22.50
2018-05-21T00:18:00.945Z,21.73
2018-05-21T00:20:35.472Z,24.43
2018-05-21T00:23:06.589Z,22.77
2018-05-21T00:25:34.736Z,21.60
2018-05-21T00:28:11.987Z,22.10
2018-05-21T00:30:42.557Z,22.97
2018-05-21T00:33:10.266Z,24.57
2018-05-21T00:35:38.144Z,23.00
2018-05-21T00:38:05.802Z,22.77
2018-05-21T00:40:38.791Z,22.77
2018-05-21T00:43:06.499Z,23.43
2018-05-21T00:45:34.105Z,22.67
2018-05-21T00:48:01.712Z,21.90
2018-05-21T00:50:29.363Z,21.37
2018-05-21T00:52:59.706Z,23.93
2018-05-21T00:55:37.392Z,22.83
2018-05-21T00:58:10.143Z,22.77
2018-05-21T01:00:42.810Z,22.73
2018-05-21T01:03:21.187Z,26.60
2018-05-21T01:05:54.855Z,24.63
2018-05-21T01:08:34.583Z,24.80
2018-05-21T01:11:04.597Z,26.10
2018-05-21T01:13:43.377Z,28.23
2018-05-21T01:16:16.094Z,26.70
2018-05-21T01:18:45.799Z,28.27
2018-05-21T01:21:23.770Z,27.67
2018-05-21T01:23:57.745Z,28.90
2018-05-21T01:29:09.118Z,30.77
2018-05-21T01:31:44.010Z,31.20
2018-05-21T01:34:18.803Z,31.03
2018-05-21T01:36:53.744Z,33.27
2018-05-21T01:39:27.501Z,29.70
2018-05-21T01:41:59.444Z,31.53
2018-05-21T01:44:30.820Z,28.77
2018-05-21T01:46:59.031Z,35.37
2018-05-21T01:49:26.605Z,35.27
2018-05-21T01:52:01.395Z,33.57
2018-05-21T01:54:29.738Z,33.10
2018-05-21T01:57:00.703Z,32.47
2018-05-21T01:59:32.036Z,32.47
2018-05-21T02:01:59.642Z,33.83
2018-05-21T02:04:29.313Z,32.40
2018-05-21T02:06:58.024Z,36.40
2018-05-21T02:09:27.454Z,32.97
2018-05-21T02:12:01.981Z,34.53
2018-05-21T02:14:32.737Z,38.43
2018-05-21T02:17:15.265Z,35.43
2018-05-21T02:19:43.066Z,35.20
2018-05-21T02:22:15.554Z,35.40
2018-05-21T02:24:43.963Z,32.27
2018-05-21T02:27:12.862Z,35.00
2018-05-21T02:29:41.653Z,32.83
2018-05-21T02:32:10.455Z,32.77
2018-05-21T02:34:41.656Z,34.20
2018-05-21T02:37:13.410Z,37.30
2018-05-21T02:39:41.467Z,32.37
2018-05-21T02:42:14.999Z,33.13
2018-05-21T02:45:02.446Z,33.23
2018-05-21T02:47:36.702Z,34.03
2018-05-21T02:50:10.974Z,34.90
2018-05-21T02:52:48.174Z,35.07
2018-05-21T02:55:19.390Z,35.53
2018-05-21T02:57:50.316Z,35.30
2018-05-21T03:00:18.957Z,36.03
2018-05-21T03:02:48.152Z,34.13
2018-05-21T03:05:20.881Z,35.63
2018-05-21T03:07:51.982Z,36.20
2018-05-21T03:10:20.351Z,34.67
2018-05-21T03:12:54.801Z,35.13
2018-05-21T03:15:30.801Z,34.60
2018-05-21T03:18:01.932Z,33.97
2018-05-21T03:20:32.568Z,37.57
2018-05-21T03:23:15.098Z,37.27
2018-05-21T03:25:51.585Z,37.30
2018-05-21T03:28:29.917Z,36.13
2018-05-21T03:30:57.569Z,32.03
2018-05-21T03:33:33.518Z,33.97
2018-05-21T03:36:04.024Z,33.27
2018-05-21T03:38:36.574Z,33.97
2018-05-21T03:41:04.587Z,35.50
2018-05-21T03:43:33.499Z,33.03
2018-05-21T03:46:01.339Z,34.00
2018-05-21T03:48:36.894Z,34.00
2018-05-21T03:51:05.163Z,32.67
2018-05-21T03:53:39.313Z,34.47
2018-05-21T03:56:10.315Z,34.53
2018-05-21T03:58:52.180Z,32.03
2018-05-21T04:01:32.734Z,34.33
2018-05-21T04:04:00.356Z,34.33
2018-05-21T04:06:34.715Z,37.63
2018-05-21T04:09:08.885Z,36.57
2018-05-21T04:11:39.342Z,35.60
2018-05-21T04:14:09.240Z,38.07
2018-05-21T04:16:48.069Z,35.20
2018-05-21T04:19:19.015Z,36.30
2018-05-21T04:21:49.849Z,36.60
2018-05-21T04:24:17.429Z,40.70
2018-05-21T04:26:45.381Z,41.30
2018-05-21T04:29:13.447Z,37.73
2018-05-21T04:31:42.316Z,33.83
2018-05-21T04:34:18.747Z,36.17
2018-05-21T04:36:53.394Z,36.97
2018-05-21T04:39:24.530Z,37.03
2018-05-21T04:41:55.795Z,35.80
2018-05-21T04:44:33.026Z,37.80
2018-05-21T04:47:07.867Z,34.20
2018-05-21T04:49:41.938Z,34.83
2018-05-21T04:52:14.514Z,37.13
2018-05-21T04:54:50.309Z,36.70
2018-05-21T04:57:22.492Z,38.00
2018-05-21T04:59:50.342Z,34.03
2018-05-21T05:02:28.475Z,34.93
2018-05-21T05:05:00.633Z,34.13
2018-05-21T05:07:35.084Z,32.67
2018-05-21T05:10:07.586Z,33.77
2018-05-21T05:12:43.746Z,33.83
2018-05-21T05:15:17.608Z,33.77
2018-05-21T05:17:49.442Z,34.20
2018-05-21T05:20:26.341Z,36.07
2018-05-21T05:22:56.188Z,36.03
2018-05-21T05:25:32.015Z,36.17
2018-05-21T05:28:04.139Z,35.93
2018-05-21T05:30:36.578Z,38.10
2018-05-21T05:33:04.687Z,37.93
2018-05-21T05:35:33.555Z,36.13
2018-05-21T05:38:05.810Z,39.10
2018-05-21T05:40:33.724Z,37.47
2018-05-21T05:43:05.868Z,39.40
2018-05-21T05:45:36.697Z,38.17
2018-05-21T05:48:11.915Z,38.20
2018-05-21T05:50:47.062Z,40.03
2018-05-21T05:53:17.324Z,38.03
2018-05-21T05:55:51.126Z,39.07
2018-05-21T05:58:28.722Z,38.83
2018-05-21T06:01:02.738Z,37.33
2018-05-21T06:03:37.530Z,35.43
2018-05-21T06:06:09.654Z,35.53
2018-05-21T06:08:47.132Z,37.20
2018-05-21T06:11:20.973Z,35.50
2018-05-21T06:13:57.849Z,36.37
2018-05-21T06:16:31.961Z,37.13
2018-05-21T06:19:11.120Z,36.97
2018-05-21T06:21:48.270Z,34.87
2018-05-21T06:24:20.277Z,35.37
2018-05-21T06:26:49.657Z,32.63
2018-05-21T06:29:21.570Z,32.83
2018-05-21T06:31:58.243Z,34.17
2018-05-21T06:34:36.991Z,34.27
2018-05-21T06:37:11.699Z,32.27
2018-05-21T06:39:42.220Z,34.03
2018-05-21T06:42:16.636Z,33.97
2018-05-21T06:44:51.129Z,37.07
2018-05-21T06:47:27.338Z,33.90
2018-05-21T06:50:01.808Z,32.33
2018-05-21T06:52:34.110Z,33.27
2018-05-21T06:55:03.615Z,34.90
2018-05-21T06:57:35.773Z,33.23
2018-05-21T07:00:07.014Z,33.87
2018-05-21T07:02:37.308Z,33.40
2018-05-21T07:05:06.342Z,33.70
2018-05-21T07:07:37.094Z,31.43
2018-05-21T07:10:06.764Z,35.00
2018-05-21T07:12:44.637Z,34.13
2018-05-21T07:15:14.998Z,33.37
2018-05-21T07:17:54.948Z,34.77
2018-05-21T07:20:36.268Z,34.07
2018-05-21T07:23:09.337Z,32.03
2018-05-21T07:25:39.699Z,32.97
2018-05-21T07:28:09.089Z,33.67
2018-05-21T07:30:39.056Z,33.33
2018-05-21T07:33:15.273Z,32.37
2018-05-21T07:35:52.793Z,32.03
2018-05-21T07:38:26.710Z,32.67
2018-05-21T07:41:02.324Z,32.00
2018-05-21T07:43:34.794Z,34.07
2018-05-21T07:46:09.847Z,30.23
2018-05-21T07:48:40.992Z,32.73
2018-05-21T07:51:17.963Z,30.50
2018-05-21T07:53:53.635Z,32.63
2018-05-21T07:56:29.117Z,30.93
2018-05-21T07:59:01.674Z,30.77
2018-05-21T08:01:41.920Z,29.33
2018-05-21T08:04:13.511Z,28.67
2018-05-21T08:06:46.973Z,29.70
2018-05-21T08:09:21.504Z,29.53
2018-05-21T08:11:59.591Z,30.17
2018-05-21T08:14:31.299Z,28.23
2018-05-21T08:17:10.644Z,30.73
2018-05-21T08:19:42.746Z,28.63
2018-05-21T08:22:15.797Z,29.73
2018-05-21T08:24:52.708Z,30.17
2018-05-21T08:27:29.303Z,28.77
2018-05-21T08:29:59.915Z,28.80
2018-05-21T08:32:35.488Z,29.20
2018-05-21T08:35:10.230Z,29.27
2018-05-21T08:37:47.847Z,28.33
2018-05-21T08:40:19.639Z,27.83
2018-05-21T08:42:54.861Z,27.33
2018-05-21T08:45:23.808Z,26.23
2018-05-21T08:47:54.445Z,27.60
2018-05-21T08:50:25.024Z,26.93
2018-05-21T08:52:53.971Z,28.00
2018-05-21T08:55:23.271Z,25.33
2018-05-21T08:57:55.539Z,24.23
2018-05-21T09:00:25.526Z,25.03
2018-05-21T09:03:01.761Z,24.33
2018-05-21T09:05:36.074Z,26.80
2018-05-21T09:08:10.446Z,25.67
2018-05-21T09:10:49.278Z,23.60
2018-05-21T09:13:20.659Z,24.60
2018-05-21T09:15:53.584Z,24.63
2018-05-21T09:18:25.796Z,24.03
2018-05-21T09:21:08.794Z,24.30
2018-05-21T09:23:41.550Z,24.50
2018-05-21T09:26:12.058Z,22.77
2018-05-21T09:28:49.408Z,22.23
2018-05-21T09:31:24.025Z,22.53
2018-05-21T09:34:00.353Z,21.60
2018-05-21T09:36:38.097Z,21.97
2018-05-21T09:39:12.577Z,20.27
2018-05-21T09:41:45.687Z,20.73
2018-05-21T09:44:21.274Z,21.20
2018-05-21T09:46:58.890Z,21.40
2018-05-21T09:49:28.511Z,22.53
2018-05-21T09:52:03.086Z,20.03
2018-05-21T09:54:44.385Z,19.33
2018-05-21T09:57:15.281Z,20.33
2018-05-21T09:59:50.312Z,19.23
2018-05-21T10:02:20.161Z,18.43
2018-05-21T10:04:49.390Z,18.20
2018-05-21T10:07:19.214Z,18.60
2018-05-21T10:09:49.659Z,17.57
2018-05-21T10:12:36.942Z,17.60
2018-05-21T10:15:16.629Z,17.20
2018-05-21T10:17:54.820Z,16.93
2018-05-21T10:20:27.618Z,18.17
2018-05-21T10:23:03.914Z,18.73
2018-05-21T10:25:40.831Z,16.67
2018-05-21T10:28:09.985Z,14.57
2018-05-21T10:30:43.195Z,15.10
2018-05-21T10:33:12.696Z,14.93
2018-05-21T10:35:41.678Z,13.83
2018-05-21T10:38:10.613Z,13.18
2018-05-21T10:40:39.586Z,11.30
2018-05-21T10:43:13.065Z,12.27
2018-05-21T10:45:49.781Z,11.82
2018-05-21T10:48:20.056Z,8.95
2018-05-21T10:51:00.044Z,11.88
2018-05-21T10:53:30.191Z,11.65
2018-05-21T10:56:06.878Z,10.93
2018-05-21T10:58:41.465Z,11.68
2018-05-21T11:01:14.975Z,10.63
2018-05-21T11:03:51.138Z,10.70
2018-05-21T11:06:22.764Z,10.68
2018-05-21T11:08:57.868Z,10.70
2018-05-21T11:11:37.701Z,9.85
2018-05-21T11:14:11.621Z,6.53
2018-05-21T11:16:42.982Z,8.23
2018-05-21T11:19:16.943Z,6.18
2018-05-21T11:21:51.042Z,5.53
2018-05-21T11:24:26.508Z,7.57
2018-05-21T11:27:01.599Z,5.80
2018-05-21T11:29:37.043Z,5.35
2018-05-21T11:32:12.523Z,5.85
2018-05-21T11:34:42.674Z,7.00
2018-05-21T11:37:20.677Z,6.30
2018-05-21T11:39:56.563Z,5.85
2018-05-21T11:42:25.724Z,5.25
2018-05-21T11:45:15.007Z,5.78
2018-05-21T11:47:44.195Z,6.35
2018-05-21T11:50:15.484Z,6.80
2018-05-21T11:52:51.183Z,6.10
2018-05-21T11:55:27.423Z,6.68
2018-05-21T11:57:59.497Z,6.43
2018-05-21T12:00:30.105Z,5.93
2018-05-21T12:02:59.496Z,6.97
2018-05-21T12:05:29.034Z,7.22
2018-05-21T12:07:58.639Z,7.12
2018-05-21T12:10:28.932Z,7.43
2018-05-21T12:12:59.765Z,7.78
2018-05-21T12:15:31.010Z,7.00
2018-05-21T12:18:08.751Z,6.53
2018-05-21T12:20:40.916Z,6.68
2018-05-21T12:23:10.418Z,8.63
2018-05-21T12:25:39.883Z,8.23
2018-05-21T12:28:10.591Z,9.68
2018-05-21T12:30:50.124Z,8.65
2018-05-21T12:33:19.039Z,8.30
2018-05-21T12:35:48.517Z,9.70
2018-05-21T12:38:19.958Z,8.52
2018-05-21T12:40:50.379Z,8.95
2018-05-21T12:43:23.052Z,8.57
2018-05-21T12:45:58.249Z,8.93
2018-05-21T12:48:34.715Z,9.00
2018-05-21T12:51:10.208Z,8.88
2018-05-21T12:53:53.334Z,9.88
2018-05-21T12:56:22.863Z,7.65
2018-05-21T12:58:55.300Z,8.70
2018-05-21T13:01:25.273Z,8.90
2018-05-21T13:04:01.808Z,8.52
2018-05-21T13:06:37.967Z,8.73
2018-05-21T13:09:11.001Z,9.05
2018-05-21T13:11:46.309Z,8.85
2018-05-21T13:14:22.236Z,7.85
2018-05-21T13:17:00.492Z,8.82
2018-05-21T13:19:36.987Z,8.07
2018-05-21T13:22:05.888Z,8.90
2018-05-21T13:24:43.843Z,8.38
2018-05-21T13:27:15.344Z,8.00
2018-05-21T13:29:50.090Z,7.87
2018-05-21T13:32:29.043Z,7.80
2018-05-21T13:34:59.228Z,8.15
2018-05-21T13:37:37.775Z,8.18
2018-05-21T13:40:11.263Z,7.35
2018-05-21T13:42:45.417Z,8.30
2018-05-21T13:45:19.887Z,8.23
2018-05-21T13:47:53.736Z,7.37
2018-05-21T13:50:29.837Z,7.55
2018-05-21T13:53:07.426Z,7.82
2018-05-21T13:55:36.401Z,7.72
2018-05-21T13:58:19.859Z,7.47
2018-05-21T14:00:49.878Z,7.87
2018-05-21T14:03:24.704Z,7.43
2018-05-21T14:05:59.636Z,8.40
2018-05-21T14:08:29.140Z,8.35
2018-05-21T14:10:59.328Z,7.25
2018-05-21T14:13:34.124Z,7.50
2018-05-21T14:16:03.750Z,8.98
2018-05-21T14:18:34.688Z,8.32
2018-05-21T14:21:05.626Z,7.75
2018-05-21T14:23:47.396Z,7.32
2018-05-21T14:26:17.927Z,7.95
2018-05-21T14:28:47.908Z,7.60
2018-05-21T14:31:21.076Z,7.72
2018-05-21T14:33:50.029Z,8.40
2018-05-21T14:36:25.793Z,7.75
2018-05-21T14:38:57.646Z,8.25
2018-05-21T14:41:34.784Z,7.30
2018-05-21T14:44:05.013Z,7.82
2018-05-21T14:46:33.984Z,7.75
2018-05-21T14:49:03.284Z,7.05
2018-05-21T14:51:52.958Z,7.90
2018-05-21T14:54:29.927Z,7.18
2018-05-21T14:57:02.593Z,7.75
2018-05-21T14:59:34.990Z,7.53
2018-05-21T15:02:13.725Z,7.60
2018-05-21T15:04:52.823Z,8.50
2018-05-21T15:07:25.012Z,8.18
2018-05-21T15:09:54.586Z,8.57
2018-05-21T15:12:24.135Z,8.52
2018-05-21T15:14:54.033Z,8.18
2018-05-21T15:17:27.169Z,7.97
2018-05-21T15:53:32.769Z,6.93
2018-05-21T15:59:24.319Z,6.40
2018-05-21T16:20:54.737Z,8.50
2018-05-21T16:33:18.894Z,5.70
2018-05-21T21:02:03.279Z,10.00
2018-05-21T21:04:33.934Z,11.13
2018-05-21T21:07:10.419Z,11.00
2018-05-21T21:09:43.933Z,12.10
2018-05-21T21:12:13.805Z,11.83
2018-05-21T21:14:45.827Z,11.33
2018-05-21T21:17:22.413Z,11.00
2018-05-21T21:19:56.886Z,10.37
2018-05-21T21:22:32.290Z,10.57
2018-05-21T21:25:11.010Z,10.27
2018-05-21T21:27:41.247Z,11.87
2018-05-21T21:30:12.320Z,11.30
2018-05-21T21:32:48.891Z,11.07
2018-05-21T21:35:23.879Z,10.27
2018-05-21T21:37:55.807Z,10.60
2018-05-21T21:40:32.853Z,11.00
2018-05-21T21:43:07.939Z,10.30
2018-05-21T21:45:44.452Z,9.60
2018-05-21T21:48:17.554Z,9.50
2018-05-21T21:50:51.161Z,9.20
2018-05-21T21:53:26.979Z,8.53
2018-05-21T21:56:03.135Z,9.03
2018-05-21T21:58:35.154Z,8.83
2018-05-21T22:01:12.261Z,8.47
2018-05-21T22:03:48.313Z,8.73
2018-05-21T22:06:21.731Z,9.23
2018-05-21T22:08:57.871Z,9.03
2018-05-21T22:11:35.351Z,8.97
2018-05-21T22:14:04.731Z,9.57
2018-05-21T22:16:38.208Z,9.33
2018-05-21T22:19:09.939Z,9.07
2018-05-21T22:21:46.787Z,9.20
2018-05-21T22:24:19.759Z,9.83
2018-05-21T22:26:54.073Z,9.57
2018-05-21T22:29:24.720Z,9.80
2018-05-21T22:31:54.653Z,9.23
2018-05-21T22:34:29.520Z,9.37
2018-05-21T22:36:58.477Z,9.07
2018-05-21T22:39:27.696Z,9.40
2018-05-21T22:41:56.675Z,9.20
2018-05-21T22:44:31.072Z,9.57
2018-05-21T22:47:02.326Z,8.83
2018-05-21T22:52:13.815Z,8.63
2018-05-21T22:54:50.746Z,8.23
2018-05-21T22:57:22.099Z,8.40
2018-05-21T23:00:00.253Z,9.40
2018-05-21T23:02:35.863Z,8.37
2018-05-21T23:05:06.583Z,7.93
2018-05-21T23:07:38.493Z,8.40
2018-05-21T23:10:08.439Z,8.33
2018-05-21T23:12:39.024Z,8.63
2018-05-21T23:15:08.678Z,8.83
2018-05-21T23:17:38.722Z,8.50
2018-05-21T23:20:08.016Z,8.97
2018-05-21T23:22:48.071Z,8.20
2018-05-21T23:25:17.993Z,8.37
2018-05-21T23:27:48.004Z,8.63
2018-05-21T23:30:16.989Z,8.03
2018-05-21T23:32:46.045Z,8.43
2018-05-21T23:35:16.175Z,8.60
2018-05-21T23:37:46.384Z,8.80
2018-05-21T23:40:16.493Z,8.60
2018-05-21T23:42:48.985Z,8.23
2018-05-21T23:45:21.030Z,8.37
2018-05-21T23:47:50.444Z,7.60
2018-05-21T23:50:24.805Z,8.37
2018-05-21T23:52:53.795Z,7.83
2018-05-21T23:55:30.806Z,7.73
2018-05-21T23:58:00.396Z,7.70
